sensor_id;sensor_type;location;lat;lon;timestamp;pressure;altitude;pressure_sealevel;temperature;humidity
64388;BME280;50709;52.648;4.764;2023-11-21T00:00:21;101089.50;;;15.27;73.99
64388;BME280;50709;52.648;4.764;2023-11-21T00:02:47;101095.59;;;15.29;74.17
64388;BME280;50709;52.648;4.764;2023-11-21T00:05:14;101106.13;;;15.30;74.43
64388;BME280;50709;52.648;4.764;2023-11-21T00:07:43;101094.81;;;15.24;73.92
64388;BME280;50709;52.648;4.764;2023-11-21T00:10:09;101106.13;;;15.30;75.04
64388;BME280;50709;52.648;4.764;2023-11-21T00:12:35;101109.69;;;15.28;74.82
64388;BME280;50709;52.648;4.764;2023-11-21T00:15:01;101107.03;;;15.28;74.05
64388;BME280;50709;52.648;4.764;2023-11-21T00:17:27;101108.84;;;15.23;74.75
64388;BME280;50709;52.648;4.764;2023-11-21T00:19:52;101116.66;;;15.30;74.89
64388;BME280;50709;52.648;4.764;2023-11-21T00:22:18;101113.22;;;15.25;74.56
64388;BME280;50709;52.648;4.764;2023-11-21T00:24:43;101117.56;;;15.26;75.17
64388;BME280;50709;52.648;4.764;2023-11-21T00:27:09;101106.28;;;15.20;75.17
64388;BME280;50709;52.648;4.764;2023-11-21T00:29:34;101105.38;;;15.21;74.95
64388;BME280;50709;52.648;4.764;2023-11-21T00:32:00;101110.59;;;15.25;75.34
64388;BME280;50709;52.648;4.764;2023-11-21T00:34:25;101103.59;;;15.23;75.79
64388;BME280;50709;52.648;4.764;2023-11-21T00:36:50;101102.72;;;15.21;75.47
64388;BME280;50709;52.648;4.764;2023-11-21T00:39:16;101106.34;;;15.13;75.07
64388;BME280;50709;52.648;4.764;2023-11-21T00:41:41;101113.38;;;15.13;75.41
64388;BME280;50709;52.648;4.764;2023-11-21T00:44:07;101101.16;;;15.09;75.70
64388;BME280;50709;52.648;4.764;2023-11-21T00:46:32;101105.63;;;15.02;75.08
64388;BME280;50709;52.648;4.764;2023-11-21T00:48:57;101089.16;;;14.85;75.95
64388;BME280;50709;52.648;4.764;2023-11-21T00:51:23;101115.31;;;14.97;76.60
64388;BME280;50709;52.648;4.764;2023-11-21T00:53:49;101115.97;;;15.14;76.22
64388;BME280;50709;52.648;4.764;2023-11-21T00:56:15;101118.63;;;15.11;75.31
64388;BME280;50709;52.648;4.764;2023-11-21T00:58:40;101108.31;;;14.96;75.33
64388;BME280;50709;52.648;4.764;2023-11-21T01:01:11;101131.00;;;15.03;76.05
64388;BME280;50709;52.648;4.764;2023-11-21T01:03:37;101122.31;;;14.96;75.22
64388;BME280;50709;52.648;4.764;2023-11-21T01:06:02;101127.66;;;14.90;75.37
64388;BME280;50709;52.648;4.764;2023-11-21T01:08:28;101153.84;;;15.01;76.13
64388;BME280;50709;52.648;4.764;2023-11-21T01:10:53;101139.00;;;14.94;75.04
64388;BME280;50709;52.648;4.764;2023-11-21T01:13:20;101144.28;;;14.95;76.06
64388;BME280;50709;52.648;4.764;2023-11-21T01:15:45;101148.69;;;14.90;76.02
64388;BME280;50709;52.648;4.764;2023-11-21T01:18:11;101155.59;;;14.99;75.82
64388;BME280;50709;52.648;4.764;2023-11-21T01:20:36;101151.34;;;14.89;75.60
64388;BME280;50709;52.648;4.764;2023-11-21T01:23:02;101162.69;;;14.92;76.18
64388;BME280;50709;52.648;4.764;2023-11-21T01:25:27;101168.84;;;14.90;76.51
64388;BME280;50709;52.648;4.764;2023-11-21T01:27:52;101181.13;;;14.91;76.54
64388;BME280;50709;52.648;4.764;2023-11-21T01:30:18;101174.97;;;14.92;76.32
64388;BME280;50709;52.648;4.764;2023-11-21T01:32:44;101183.69;;;14.99;75.70
64388;BME280;50709;52.648;4.764;2023-11-21T01:35:09;101181.03;;;15.00;75.71
64388;BME280;50709;52.648;4.764;2023-11-21T01:37:36;101184.50;;;15.01;76.21
64388;BME280;50709;52.648;4.764;2023-11-21T01:40:02;101188.97;;;14.97;76.29
64388;BME280;50709;52.648;4.764;2023-11-21T01:42:27;101181.88;;;15.01;76.13
64388;BME280;50709;52.648;4.764;2023-11-21T01:44:54;101191.47;;;15.08;77.00
64388;BME280;50709;52.648;4.764;2023-11-21T01:47:20;101191.47;;;15.05;76.86
64388;BME280;50709;52.648;4.764;2023-11-21T01:49:46;101194.97;;;15.08;75.63
64388;BME280;50709;52.648;4.764;2023-11-21T01:52:12;101169.69;;;14.95;75.89
64388;BME280;50709;52.648;4.764;2023-11-21T01:54:38;101194.03;;;15.12;75.62
64388;BME280;50709;52.648;4.764;2023-11-21T01:57:05;101174.91;;;14.98;76.21
64388;BME280;50709;52.648;4.764;2023-11-21T01:59:36;101169.56;;;15.04;75.46
64388;BME280;50709;52.648;4.764;2023-11-21T02:02:03;101206.13;;;15.27;74.95
64388;BME280;50709;52.648;4.764;2023-11-21T02:04:30;101206.25;;;15.17;75.82
64388;BME280;50709;52.648;4.764;2023-11-21T02:06:57;101200.94;;;15.24;75.95
64388;BME280;50709;52.648;4.764;2023-11-21T02:09:26;101207.03;;;15.28;75.59
64388;BME280;50709;52.648;4.764;2023-11-21T02:11:52;101211.38;;;15.32;74.83
64388;BME280;50709;52.648;4.764;2023-11-21T02:14:19;101194.00;;;15.17;75.11
64388;BME280;50709;52.648;4.764;2023-11-21T02:16:51;101206.09;;;15.34;75.12
64388;BME280;50709;52.648;4.764;2023-11-21T02:19:22;101186.06;;;15.20;75.29
64388;BME280;50709;52.648;4.764;2023-11-21T02:21:53;101205.19;;;15.33;74.39
64388;BME280;50709;52.648;4.764;2023-11-21T02:24:23;101212.09;;;15.43;73.74
64388;BME280;50709;52.648;4.764;2023-11-21T02:26:49;101211.25;;;15.40;73.93
64388;BME280;50709;52.648;4.764;2023-11-21T02:29:20;101203.38;;;15.38;73.64
64388;BME280;50709;52.648;4.764;2023-11-21T02:31:53;101219.16;;;15.40;74.46
64388;BME280;50709;52.648;4.764;2023-11-21T02:34:20;101210.53;;;15.27;75.02
64388;BME280;50709;52.648;4.764;2023-11-21T02:36:46;101226.34;;;15.27;75.21
64388;BME280;50709;52.648;4.764;2023-11-21T02:39:14;101216.72;;;15.24;74.98
64388;BME280;50709;52.648;4.764;2023-11-21T02:41:40;101231.63;;;15.24;74.90
64388;BME280;50709;52.648;4.764;2023-11-21T02:44:06;101209.78;;;15.14;74.73
64388;BME280;50709;52.648;4.764;2023-11-21T02:46:35;101231.66;;;15.21;75.02
64388;BME280;50709;52.648;4.764;2023-11-21T02:49:02;101221.25;;;15.10;75.33
64388;BME280;50709;52.648;4.764;2023-11-21T02:51:28;101242.25;;;15.16;75.00
64388;BME280;50709;52.648;4.764;2023-11-21T02:53:54;101235.25;;;15.13;75.24
64388;BME280;50709;52.648;4.764;2023-11-21T02:56:20;101221.31;;;15.04;75.10
64388;BME280;50709;52.648;4.764;2023-11-21T02:58:45;101242.28;;;15.11;75.44
64388;BME280;50709;52.648;4.764;2023-11-21T03:01:10;101241.41;;;15.11;75.35
64388;BME280;50709;52.648;4.764;2023-11-21T03:03:37;101232.75;;;14.98;75.32
64388;BME280;50709;52.648;4.764;2023-11-21T03:06:06;101244.97;;;15.05;75.39
64388;BME280;50709;52.648;4.764;2023-11-21T03:08:31;101239.78;;;14.97;75.51
64388;BME280;50709;52.648;4.764;2023-11-21T03:10:57;101242.47;;;14.93;75.83
64388;BME280;50709;52.648;4.764;2023-11-21T03:13:22;101229.41;;;14.84;75.91
64388;BME280;50709;52.648;4.764;2023-11-21T03:15:48;101247.69;;;14.97;75.48
64388;BME280;50709;52.648;4.764;2023-11-21T03:18:13;101254.72;;;14.94;75.37
64388;BME280;50709;52.648;4.764;2023-11-21T03:20:39;101246.03;;;14.89;75.90
64388;BME280;50709;52.648;4.764;2023-11-21T03:23:04;101255.59;;;14.94;75.66
64388;BME280;50709;52.648;4.764;2023-11-21T03:25:30;101260.00;;;14.91;75.15
64388;BME280;50709;52.648;4.764;2023-11-21T03:27:56;101264.41;;;14.92;76.43
64388;BME280;50709;52.648;4.764;2023-11-21T03:30:21;101266.19;;;14.87;76.64
64388;BME280;50709;52.648;4.764;2023-11-21T03:32:47;101263.53;;;14.90;76.30
64388;BME280;50709;52.648;4.764;2023-11-21T03:35:12;101279.28;;;14.90;75.41
64388;BME280;50709;52.648;4.764;2023-11-21T03:37:38;101276.69;;;14.88;75.42
64388;BME280;50709;52.648;4.764;2023-11-21T03:40:07;101257.44;;;14.85;74.46
64388;BME280;50709;52.648;4.764;2023-11-21T03:42:33;101277.59;;;14.86;75.74
64388;BME280;50709;52.648;4.764;2023-11-21T03:44:58;101270.59;;;14.85;75.90
64388;BME280;50709;52.648;4.764;2023-11-21T03:47:25;101284.56;;;14.93;75.30
64388;BME280;50709;52.648;4.764;2023-11-21T03:49:51;101285.34;;;14.98;75.16
64388;BME280;50709;52.648;4.764;2023-11-21T03:52:16;101295.03;;;14.96;75.80
64388;BME280;50709;52.648;4.764;2023-11-21T03:54:42;101300.28;;;14.96;75.00
64388;BME280;50709;52.648;4.764;2023-11-21T03:57:08;101299.38;;;15.00;75.25
64388;BME280;50709;52.648;4.764;2023-11-21T03:59:34;101294.97;;;15.05;74.96
64388;BME280;50709;52.648;4.764;2023-11-21T04:02:00;101302.06;;;14.94;74.97
64388;BME280;50709;52.648;4.764;2023-11-21T04:04:25;101289.88;;;14.84;74.90
64388;BME280;50709;52.648;4.764;2023-11-21T04:06:50;101313.41;;;15.02;75.45
64388;BME280;50709;52.648;4.764;2023-11-21T04:09:17;101317.72;;;15.08;75.38
64388;BME280;50709;52.648;4.764;2023-11-21T04:11:42;101311.59;;;15.07;74.64
64388;BME280;50709;52.648;4.764;2023-11-21T04:14:08;101322.06;;;15.13;74.45
64388;BME280;50709;52.648;4.764;2023-11-21T04:16:34;101311.63;;;15.04;74.76
64388;BME280;50709;52.648;4.764;2023-11-21T04:18:59;101326.53;;;15.04;74.94
64388;BME280;50709;52.648;4.764;2023-11-21T04:21:25;101323.00;;;15.03;74.60
64388;BME280;50709;52.648;4.764;2023-11-21T04:23:50;101340.47;;;15.13;75.15
64388;BME280;50709;52.648;4.764;2023-11-21T04:26:16;101319.53;;;15.01;74.63
64388;BME280;50709;52.648;4.764;2023-11-21T04:28:41;101344.03;;;15.09;75.02
64388;BME280;50709;52.648;4.764;2023-11-21T04:31:07;101353.69;;;15.09;74.38
64388;BME280;50709;52.648;4.764;2023-11-21T04:33:32;101327.47;;;14.96;74.43
64388;BME280;50709;52.648;4.764;2023-11-21T04:35:58;101359.78;;;15.12;74.93
64388;BME280;50709;52.648;4.764;2023-11-21T04:38:23;101367.66;;;15.12;73.98
64388;BME280;50709;52.648;4.764;2023-11-21T04:40:48;101374.63;;;15.21;73.86
64388;BME280;50709;52.648;4.764;2023-11-21T04:43:14;101380.72;;;15.23;73.93
64388;BME280;50709;52.648;4.764;2023-11-21T04:45:39;101374.59;;;15.23;73.73
64388;BME280;50709;52.648;4.764;2023-11-21T04:48:07;101364.88;;;15.31;73.54
64388;BME280;50709;52.648;4.764;2023-11-21T04:50:33;101374.53;;;15.32;74.28
64388;BME280;50709;52.648;4.764;2023-11-21T04:52:58;101384.97;;;15.38;74.20
64388;BME280;50709;52.648;4.764;2023-11-21T04:55:24;101371.78;;;15.43;73.66
64388;BME280;50709;52.648;4.764;2023-11-21T04:57:49;101378.03;;;15.31;73.69
64388;BME280;50709;52.648;4.764;2023-11-21T05:00:14;101385.81;;;15.43;72.94
64388;BME280;50709;52.648;4.764;2023-11-21T05:02:41;101394.59;;;15.42;73.85
64388;BME280;50709;52.648;4.764;2023-11-21T05:05:07;101400.75;;;15.43;73.52
64388;BME280;50709;52.648;4.764;2023-11-21T05:07:33;101400.72;;;15.46;73.33
64388;BME280;50709;52.648;4.764;2023-11-21T05:10:00;101406.88;;;15.43;72.88
64388;BME280;50709;52.648;4.764;2023-11-21T05:12:31;101420.84;;;15.52;73.62
64388;BME280;50709;52.648;4.764;2023-11-21T05:14:58;101410.31;;;15.52;73.29
64388;BME280;50709;52.648;4.764;2023-11-21T05:17:24;101411.13;;;15.57;73.45
64388;BME280;50709;52.648;4.764;2023-11-21T05:19:49;101409.47;;;15.45;73.46
64388;BME280;50709;52.648;4.764;2023-11-21T05:22:14;101426.91;;;15.60;72.73
64388;BME280;50709;52.648;4.764;2023-11-21T05:24:40;101407.75;;;15.42;73.31
64388;BME280;50709;52.648;4.764;2023-11-21T05:27:05;101429.66;;;15.46;73.57
64388;BME280;50709;52.648;4.764;2023-11-21T05:29:31;101430.56;;;15.42;73.34
64388;BME280;50709;52.648;4.764;2023-11-21T05:31:56;101445.19;;;15.75;72.64
64388;BME280;50709;52.648;4.764;2023-11-21T05:34:21;101440.03;;;15.61;72.56
64388;BME280;50709;52.648;4.764;2023-11-21T05:36:50;101440.06;;;15.63;72.66
64388;BME280;50709;52.648;4.764;2023-11-21T05:39:15;101450.56;;;15.64;72.65
64388;BME280;50709;52.648;4.764;2023-11-21T05:41:42;101444.31;;;15.73;71.31
64388;BME280;50709;52.648;4.764;2023-11-21T05:44:08;101457.56;;;15.64;71.88
64388;BME280;50709;52.648;4.764;2023-11-21T05:46:34;101452.44;;;15.48;73.09
64388;BME280;50709;52.648;4.764;2023-11-21T05:48:59;101456.66;;;15.70;72.55
64388;BME280;50709;52.648;4.764;2023-11-21T05:51:25;101454.81;;;15.78;71.83
64388;BME280;50709;52.648;4.764;2023-11-21T05:53:50;101463.66;;;15.71;72.11
64388;BME280;50709;52.648;4.764;2023-11-21T05:56:15;101466.38;;;15.63;72.63
64388;BME280;50709;52.648;4.764;2023-11-21T05:58:42;101467.25;;;15.62;72.94
64388;BME280;50709;52.648;4.764;2023-11-21T06:01:07;101475.22;;;15.53;72.51
64388;BME280;50709;52.648;4.764;2023-11-21T06:03:34;101478.63;;;15.67;72.41
64388;BME280;50709;52.648;4.764;2023-11-21T06:05:59;101467.25;;;15.63;71.63
64388;BME280;50709;52.648;4.764;2023-11-21T06:08:24;101482.28;;;15.52;73.03
64388;BME280;50709;52.648;4.764;2023-11-21T06:10:50;101487.44;;;15.60;72.65
64388;BME280;50709;52.648;4.764;2023-11-21T06:13:15;101491.84;;;15.59;72.18
64388;BME280;50709;52.648;4.764;2023-11-21T06:15:41;101495.41;;;15.54;72.58
64388;BME280;50709;52.648;4.764;2023-11-21T06:18:07;101500.59;;;15.60;72.11
64388;BME280;50709;52.648;4.764;2023-11-21T06:20:35;101483.19;;;15.43;72.76
64388;BME280;50709;52.648;4.764;2023-11-21T06:23:02;101480.56;;;15.45;72.70
64388;BME280;50709;52.648;4.764;2023-11-21T06:25:29;101494.59;;;15.45;72.19
64388;BME280;50709;52.648;4.764;2023-11-21T06:27:54;101494.47;;;15.61;72.41
64388;BME280;50709;52.648;4.764;2023-11-21T06:30:20;101500.59;;;15.60;73.20
64388;BME280;50709;52.648;4.764;2023-11-21T06:32:46;101520.41;;;16.07;71.77
64388;BME280;50709;52.648;4.764;2023-11-21T06:35:11;101502.34;;;16.53;72.93
64388;BME280;50709;52.648;4.764;2023-11-21T06:37:38;101520.75;;;17.26;71.18
64388;BME280;50709;52.648;4.764;2023-11-21T06:40:04;101535.06;;;17.09;70.16
64388;BME280;50709;52.648;4.764;2023-11-21T06:42:30;101521.97;;;17.61;69.98
64388;BME280;50709;52.648;4.764;2023-11-21T06:44:56;101528.78;;;17.74;69.28
64388;BME280;50709;52.648;4.764;2023-11-21T06:47:23;101535.53;;;17.38;69.26
64388;BME280;50709;52.648;4.764;2023-11-21T06:49:50;101545.22;;;17.37;69.79
64388;BME280;50709;52.648;4.764;2023-11-21T06:52:16;101545.25;;;17.34;70.23
64388;BME280;50709;52.648;4.764;2023-11-21T06:54:41;101546.59;;;17.63;66.53
64388;BME280;50709;52.648;4.764;2023-11-21T06:57:07;101537.00;;;17.57;66.62
64388;BME280;50709;52.648;4.764;2023-11-21T06:59:32;101559.00;;;17.58;68.94
64388;BME280;50709;52.648;4.764;2023-11-21T07:01:58;101551.19;;;17.50;67.65
64388;BME280;50709;52.648;4.764;2023-11-21T07:04:24;101572.34;;;17.48;69.14
64388;BME280;50709;52.648;4.764;2023-11-21T07:06:51;101568.69;;;17.56;67.26
64388;BME280;50709;52.648;4.764;2023-11-21T07:09:16;101586.59;;;17.37;67.46
64388;BME280;50709;52.648;4.764;2023-11-21T07:11:41;101588.44;;;17.92;66.45
64388;BME280;50709;52.648;4.764;2023-11-21T07:14:07;101597.25;;;17.90;65.93
64388;BME280;50709;52.648;4.764;2023-11-21T07:16:37;101602.75;;;17.74;64.91
64388;BME280;50709;52.648;4.764;2023-11-21T07:19:05;101604.50;;;17.75;65.68
64388;BME280;50709;52.648;4.764;2023-11-21T07:21:34;101607.81;;;17.30;66.41
64388;BME280;50709;52.648;4.764;2023-11-21T07:24:04;101601.47;;;17.42;66.34
64388;BME280;50709;52.648;4.764;2023-11-21T07:26:30;101617.16;;;17.55;64.92
64388;BME280;50709;52.648;4.764;2023-11-21T07:28:56;101612.75;;;17.54;65.76
64388;BME280;50709;52.648;4.764;2023-11-21T07:31:22;101634.28;;;17.24;66.05
64388;BME280;50709;52.648;4.764;2023-11-21T07:33:47;101639.06;;;17.61;64.93
64388;BME280;50709;52.648;4.764;2023-11-21T07:36:13;101631.31;;;17.47;63.65
64388;BME280;50709;52.648;4.764;2023-11-21T07:38:39;101634.66;;;16.93;65.41
64388;BME280;50709;52.648;4.764;2023-11-21T07:41:05;101647.50;;;17.23;64.96
64388;BME280;50709;52.648;4.764;2023-11-21T07:43:33;101649.03;;;17.39;65.50
64388;BME280;50709;52.648;4.764;2023-11-21T07:46:03;101648.78;;;17.59;65.20
64388;BME280;50709;52.648;4.764;2023-11-21T07:48:32;101665.31;;;17.05;64.34
64388;BME280;50709;52.648;4.764;2023-11-21T07:50:58;101669.59;;;17.15;66.71
64388;BME280;50709;52.648;4.764;2023-11-21T07:53:25;101672.41;;;16.98;65.72
64388;BME280;50709;52.648;4.764;2023-11-21T07:55:51;101682.91;;;17.03;64.83
64388;BME280;50709;52.648;4.764;2023-11-21T07:58:17;101663.34;;;17.23;64.24
64388;BME280;50709;52.648;4.764;2023-11-21T08:00:43;101682.13;;;16.98;65.05
64388;BME280;50709;52.648;4.764;2023-11-21T08:03:08;101665.66;;;16.71;65.55
64388;BME280;50709;52.648;4.764;2023-11-21T08:05:33;101690.63;;;17.22;65.38
64388;BME280;50709;52.648;4.764;2023-11-21T08:07:59;101672.16;;;17.22;65.05
64388;BME280;50709;52.648;4.764;2023-11-21T08:10:25;101698.91;;;17.62;63.88
64388;BME280;50709;52.648;4.764;2023-11-21T08:12:51;101698.63;;;17.15;65.37
64388;BME280;50709;52.648;4.764;2023-11-21T08:15:16;101682.19;;;16.89;64.22
64388;BME280;50709;52.648;4.764;2023-11-21T08:17:42;101709.97;;;17.21;65.07
64388;BME280;50709;52.648;4.764;2023-11-21T08:20:07;101703.09;;;17.09;64.38
64388;BME280;50709;52.648;4.764;2023-11-21T08:22:35;101693.78;;;16.71;65.74
64388;BME280;50709;52.648;4.764;2023-11-21T08:25:01;101716.22;;;17.13;65.07
64388;BME280;50709;52.648;4.764;2023-11-21T08:27:28;101718.78;;;17.23;65.62
64388;BME280;50709;52.648;4.764;2023-11-21T08:29:54;101719.78;;;17.11;63.60
64388;BME280;50709;52.648;4.764;2023-11-21T08:32:20;101709.97;;;17.24;64.00
64388;BME280;50709;52.648;4.764;2023-11-21T08:34:45;101710.91;;;17.17;64.00
64388;BME280;50709;52.648;4.764;2023-11-21T08:37:10;101723.31;;;17.08;63.77
64388;BME280;50709;52.648;4.764;2023-11-21T08:39:37;101708.66;;;16.79;64.52
64388;BME280;50709;52.648;4.764;2023-11-21T08:42:03;101729.50;;;17.06;64.57
64388;BME280;50709;52.648;4.764;2023-11-21T08:44:29;101735.28;;;17.40;63.82
64388;BME280;50709;52.648;4.764;2023-11-21T08:46:55;101739.56;;;17.52;62.96
64388;BME280;50709;52.648;4.764;2023-11-21T08:49:21;101733.78;;;17.18;63.22
64388;BME280;50709;52.648;4.764;2023-11-21T08:51:46;101750.09;;;17.54;63.11
64388;BME280;50709;52.648;4.764;2023-11-21T08:54:11;101748.69;;;17.22;62.10
64388;BME280;50709;52.648;4.764;2023-11-21T08:56:37;101747.88;;;17.17;62.98
64388;BME280;50709;52.648;4.764;2023-11-21T08:59:03;101751.28;;;17.28;63.39
64388;BME280;50709;52.648;4.764;2023-11-21T09:01:31;101734.78;;;17.06;63.23
64388;BME280;50709;52.648;4.764;2023-11-21T09:03:57;101763.72;;;17.18;62.86
64388;BME280;50709;52.648;4.764;2023-11-21T09:06:23;101754.47;;;16.69;64.00
64388;BME280;50709;52.648;4.764;2023-11-21T09:08:49;101774.59;;;16.81;65.05
64388;BME280;50709;52.648;4.764;2023-11-21T09:11:15;101768.81;;;17.34;64.05
64388;BME280;50709;52.648;4.764;2023-11-21T09:13:40;101783.03;;;17.20;63.54
64388;BME280;50709;52.648;4.764;2023-11-21T09:16:06;101790.56;;;16.65;63.42
64388;BME280;50709;52.648;4.764;2023-11-21T09:18:31;101792.97;;;16.96;64.84
64388;BME280;50709;52.648;4.764;2023-11-21T09:20:59;101793.56;;;17.23;63.39
64388;BME280;50709;52.648;4.764;2023-11-21T09:23:25;101799.69;;;17.27;63.19
64388;BME280;50709;52.648;4.764;2023-11-21T09:25:50;101807.59;;;17.27;62.49
64388;BME280;50709;52.648;4.764;2023-11-21T09:28:17;101816.69;;;16.95;61.32
64388;BME280;50709;52.648;4.764;2023-11-21T09:30:43;101799.78;;;17.18;63.93
64388;BME280;50709;52.648;4.764;2023-11-21T09:33:09;101814.66;;;17.23;63.07
64388;BME280;50709;52.648;4.764;2023-11-21T09:35:37;101833.28;;;17.11;64.18
64388;BME280;50709;52.648;4.764;2023-11-21T09:38:03;101848.16;;;17.17;63.95
64388;BME280;50709;52.648;4.764;2023-11-21T09:40:31;101834.84;;;17.30;63.43
64388;BME280;50709;52.648;4.764;2023-11-21T09:42:57;101831.22;;;17.39;63.39
64388;BME280;50709;52.648;4.764;2023-11-21T09:45:27;101865.38;;;17.58;63.24
64388;BME280;50709;52.648;4.764;2023-11-21T09:47:55;101862.72;;;17.59;62.55
64388;BME280;50709;52.648;4.764;2023-11-21T09:50:24;101866.63;;;17.20;64.15
64388;BME280;50709;52.648;4.764;2023-11-21T09:53:13;101857.75;;;17.28;64.00
64388;BME280;50709;52.648;4.764;2023-11-21T09:55:44;101876.06;;;17.45;63.37
64388;BME280;50709;52.648;4.764;2023-11-21T09:58:10;101869.16;;;17.34;63.92
64388;BME280;50709;52.648;4.764;2023-11-21T10:00:46;101879.66;;;17.38;63.28
64388;BME280;50709;52.648;4.764;2023-11-21T10:03:13;101901.78;;;17.26;64.08
64388;BME280;50709;52.648;4.764;2023-11-21T10:05:39;101897.16;;;17.48;63.65
64388;BME280;50709;52.648;4.764;2023-11-21T10:08:09;101873.66;;;17.22;64.02
64388;BME280;50709;52.648;4.764;2023-11-21T10:10:41;101879.78;;;17.24;64.03
64388;BME280;50709;52.648;4.764;2023-11-21T10:13:11;101893.97;;;17.12;64.12
64388;BME280;50709;52.648;4.764;2023-11-21T10:15:38;101912.56;;;16.98;65.50
64388;BME280;50709;52.648;4.764;2023-11-21T10:18:04;101917.00;;;16.90;63.69
64388;BME280;50709;52.648;4.764;2023-11-21T10:20:32;101923.81;;;17.21;63.75
64388;BME280;50709;52.648;4.764;2023-11-21T10:23:03;101927.56;;;16.92;64.15
64388;BME280;50709;52.648;4.764;2023-11-21T10:25:30;101926.72;;;16.80;65.78
64388;BME280;50709;52.648;4.764;2023-11-21T10:28:01;101926.63;;;17.01;63.88
64388;BME280;50709;52.648;4.764;2023-11-21T10:30:37;101927.53;;;16.95;62.65
64388;BME280;50709;52.648;4.764;2023-11-21T10:33:04;101896.84;;;16.77;63.74
64388;BME280;50709;52.648;4.764;2023-11-21T10:38:07;101942.44;;;16.99;63.14
64388;BME280;50709;52.648;4.764;2023-11-21T10:40:38;101942.09;;;17.45;63.38
64388;BME280;50709;52.648;4.764;2023-11-21T10:43:08;101954.63;;;17.19;64.78
64388;BME280;50709;52.648;4.764;2023-11-21T10:45:38;101945.16;;;16.93;65.18
64388;BME280;50709;52.648;4.764;2023-11-21T10:48:07;101944.16;;;17.06;63.19
64388;BME280;50709;52.648;4.764;2023-11-21T10:50:45;101917.22;;;16.55;64.28
64388;BME280;50709;52.648;4.764;2023-11-21T10:53:11;101942.63;;;16.68;62.46
64388;BME280;50709;52.648;4.764;2023-11-21T10:55:39;101925.97;;;16.61;66.94
64388;BME280;50709;52.648;4.764;2023-11-21T10:58:05;101934.94;;;16.19;65.58
64388;BME280;50709;52.648;4.764;2023-11-21T11:00:34;101916.47;;;16.23;63.40
64388;BME280;50709;52.648;4.764;2023-11-21T11:03:00;101944.38;;;16.66;65.90
64388;BME280;50709;52.648;4.764;2023-11-21T11:05:27;101930.56;;;16.14;64.29
64388;BME280;50709;52.648;4.764;2023-11-21T11:08:05;101956.47;;;17.09;66.18
64388;BME280;50709;52.648;4.764;2023-11-21T11:10:33;101953.66;;;17.30;65.14
64388;BME280;50709;52.648;4.764;2023-11-21T11:12:59;101955.72;;;16.90;63.12
64388;BME280;50709;52.648;4.764;2023-11-21T11:15:26;101940.16;;;16.37;62.81
64388;BME280;50709;52.648;4.764;2023-11-21T11:17:52;101956.75;;;16.58;65.64
64388;BME280;50709;52.648;4.764;2023-11-21T11:20:23;101946.81;;;17.05;66.22
64388;BME280;50709;52.648;4.764;2023-11-21T11:28:14;101972.31;;;17.09;63.71
64388;BME280;50709;52.648;4.764;2023-11-21T11:33:41;101970.75;;;16.69;65.52
64388;BME280;50709;52.648;4.764;2023-11-21T11:36:31;101985.81;;;16.45;65.68
64388;BME280;50709;52.648;4.764;2023-11-21T11:38:59;101984.78;;;16.79;62.47
64388;BME280;50709;52.648;4.764;2023-11-21T11:41:28;101989.47;;;15.95;62.37
64388;BME280;50709;52.648;4.764;2023-11-21T11:43:55;101994.75;;;15.69;66.08
64388;BME280;50709;52.648;4.764;2023-11-21T11:46:39;101999.81;;;16.58;67.43
64388;BME280;50709;52.648;4.764;2023-11-21T11:49:06;101993.59;;;16.72;66.26
64388;BME280;50709;52.648;4.764;2023-11-21T11:51:33;101985.78;;;16.52;65.27
64388;BME280;50709;52.648;4.764;2023-11-21T11:54:01;101996.41;;;16.36;63.58
64388;BME280;50709;52.648;4.764;2023-11-21T11:56:28;101994.75;;;15.86;64.19
64388;BME280;50709;52.648;4.764;2023-11-21T11:58:57;101984.19;;;16.04;63.95
64388;BME280;50709;52.648;4.764;2023-11-21T12:01:25;102007.94;;;15.87;63.91
64388;BME280;50709;52.648;4.764;2023-11-21T12:06:51;101989.47;;;15.33;67.10
64388;BME280;50709;52.648;4.764;2023-11-21T12:09:22;102001.72;;;15.26;64.95
64388;BME280;50709;52.648;4.764;2023-11-21T12:11:49;102016.66;;;15.24;67.07
64388;BME280;50709;52.648;4.764;2023-11-21T12:14:16;102008.66;;;14.87;64.94
64388;BME280;50709;52.648;4.764;2023-11-21T12:16:42;102028.94;;;15.22;66.34
64388;BME280;50709;52.648;4.764;2023-11-21T12:19:13;102029.84;;;15.78;64.93
64388;BME280;50709;52.648;4.764;2023-11-21T12:21:39;102018.38;;;15.10;63.32
64388;BME280;50709;52.648;4.764;2023-11-21T12:24:07;102038.59;;;15.22;67.38
64388;BME280;50709;52.648;4.764;2023-11-21T12:26:39;102032.47;;;15.51;65.17
64388;BME280;50709;52.648;4.764;2023-11-21T12:29:04;102034.06;;;14.79;63.82
64388;BME280;50709;52.648;4.764;2023-11-21T12:31:33;102044.78;;;16.04;67.19
64388;BME280;50709;52.648;4.764;2023-11-21T12:33:58;102042.09;;;16.27;66.45
64388;BME280;50709;52.648;4.764;2023-11-21T12:36:24;102050.06;;;16.10;65.30
64388;BME280;50709;52.648;4.764;2023-11-21T12:38:50;102053.56;;;16.09;66.33
64388;BME280;50709;52.648;4.764;2023-11-21T12:41:16;102036.00;;;16.14;64.29
64388;BME280;50709;52.648;4.764;2023-11-21T12:43:46;102046.28;;;16.93;63.85
64388;BME280;50709;52.648;4.764;2023-11-21T12:46:13;102053.56;;;16.08;63.40
64388;BME280;50709;52.648;4.764;2023-11-21T12:48:44;102077.25;;;15.64;65.18
64388;BME280;50709;52.648;4.764;2023-11-21T12:51:11;102079.94;;;15.97;64.42
64388;BME280;50709;52.648;4.764;2023-11-21T12:53:38;102081.69;;;16.01;65.44
64388;BME280;50709;52.648;4.764;2023-11-21T12:56:13;102080.78;;;16.24;65.58
64388;BME280;50709;52.648;4.764;2023-11-21T12:58:40;102079.03;;;16.20;61.19
64388;BME280;50709;52.648;4.764;2023-11-21T13:01:09;102087.78;;;15.64;63.00